createdAt,value
2019-02-02T00:00:50.666Z,89.61
2019-02-02T00:03:18.127Z,89.61
2019-02-02T00:05:45.632Z,89.58
2019-02-02T00:08:13.454Z,89.58
2019-02-02T00:10:40.925Z,89.62
2019-02-02T00:13:08.420Z,89.66
2019-02-02T00:15:35.819Z,89.81
2019-02-02T00:18:03.487Z,89.87
2019-02-02T00:20:30.961Z,89.72
2019-02-02T00:22:58.350Z,89.54
2019-02-02T00:25:25.716Z,89.53
2019-02-02T00:27:53.498Z,89.66
2019-02-02T00:30:21.079Z,89.61
2019-02-02T00:32:48.459Z,89.63
2019-02-02T00:35:15.871Z,89.50
2019-02-02T00:37:43.237Z,89.26
2019-02-02T00:40:10.715Z,89.21
2019-02-02T00:42:38.103Z,89.24
2019-02-02T00:45:06.090Z,89.20
2019-02-02T00:47:33.484Z,89.23
2019-02-02T00:50:01.017Z,89.04
2019-02-02T00:52:28.379Z,89.10
2019-02-02T00:54:55.767Z,89.13
2019-02-02T00:57:23.151Z,88.84
2019-02-02T00:59:50.645Z,88.72
2019-02-02T01:02:18.161Z,88.84
2019-02-02T01:04:45.538Z,89.11
2019-02-02T01:07:12.928Z,89.01
2019-02-02T01:09:40.407Z,89.15
2019-02-02T01:12:07.792Z,89.29
2019-02-02T01:14:35.174Z,89.25
2019-02-02T01:17:02.677Z,89.29
2019-02-02T01:19:30.054Z,89.28
2019-02-02T01:21:57.434Z,89.25
2019-02-02T01:24:24.854Z,89.17
2019-02-02T01:26:52.242Z,89.00
2019-02-02T01:29:19.626Z,88.78
2019-02-02T01:31:46.990Z,88.57
2019-02-02T01:34:14.470Z,88.75
2019-02-02T01:36:41.878Z,88.81
2019-02-02T01:39:09.238Z,88.83
2019-02-02T01:41:36.598Z,88.96
2019-02-02T01:44:04.411Z,89.08
2019-02-02T01:46:31.857Z,88.85
2019-02-02T01:48:59.230Z,88.93
2019-02-02T01:51:26.617Z,88.95
2019-02-02T01:53:54.096Z,88.91
2019-02-02T01:56:21.468Z,88.79
2019-02-02T02:01:19.587Z,88.91
2019-02-02T02:03:47.174Z,88.92
2019-02-02T02:06:14.557Z,88.64
2019-02-02T02:08:41.913Z,88.79
2019-02-02T02:11:09.295Z,88.63
2019-02-02T02:13:36.698Z,88.67
2019-02-02T02:16:04.082Z,89.05
2019-02-02T02:18:31.581Z,89.35
2019-02-02T02:20:59.067Z,89.36
2019-02-02T02:23:26.461Z,89.17
2019-02-02T02:25:53.838Z,89.01
2019-02-02T02:28:27.739Z,88.92
2019-02-02T02:30:50.546Z,88.91
2019-02-02T02:33:18.013Z,88.80
2019-02-02T02:35:45.531Z,88.65
2019-02-02T02:38:12.915Z,88.72
2019-02-02T02:40:40.709Z,88.64
2019-02-02T02:43:08.073Z,88.62
2019-02-02T02:45:35.424Z,88.87
2019-02-02T02:48:03.115Z,89.03
2019-02-02T02:50:30.555Z,88.94
2019-02-02T02:52:57.960Z,89.00
2019-02-02T02:55:25.498Z,88.98
2019-02-02T02:57:53.127Z,89.13
2019-02-02T03:00:21.741Z,88.71
2019-02-02T03:02:49.275Z,88.90
2019-02-02T03:05:17.237Z,88.16
2019-02-02T03:07:44.949Z,87.29
2019-02-02T03:10:13.213Z,87.26
2019-02-02T03:12:40.586Z,87.58
2019-02-02T03:15:08.568Z,88.09
2019-02-02T03:17:35.931Z,88.37
2019-02-02T03:20:03.780Z,88.36
2019-02-02T03:22:31.177Z,88.54
2019-02-02T03:24:58.692Z,88.71
2019-02-02T03:27:26.063Z,88.82
2019-02-02T03:29:53.458Z,88.76
2019-02-02T03:32:21.023Z,89.02
2019-02-02T03:34:48.486Z,88.32
2019-02-02T03:37:15.874Z,87.72
2019-02-02T03:39:43.311Z,87.48
2019-02-02T03:42:10.698Z,87.47
2019-02-02T03:44:38.128Z,87.87
2019-02-02T03:47:05.575Z,88.36
2019-02-02T03:49:32.927Z,89.07
2019-02-02T03:52:00.328Z,89.36
2019-02-02T03:54:27.768Z,89.36
2019-02-02T03:56:55.242Z,89.64
2019-02-02T03:59:22.686Z,90.05
2019-02-02T04:01:50.046Z,90.55
2019-02-02T04:04:17.438Z,90.82
2019-02-02T04:06:44.831Z,90.75
2019-02-02T04:09:12.314Z,90.62
2019-02-02T04:11:39.690Z,90.40
2019-02-02T04:14:07.100Z,90.22
2019-02-02T04:16:34.619Z,90.04
2019-02-02T04:19:02.026Z,89.96
2019-02-02T04:21:29.484Z,90.18
2019-02-02T04:23:56.851Z,89.80
2019-02-02T04:26:24.499Z,89.81
2019-02-02T04:28:51.859Z,90.16
2019-02-02T04:31:19.223Z,89.95
2019-02-02T04:33:46.633Z,89.95
2019-02-02T04:36:14.087Z,89.96
2019-02-02T04:38:41.465Z,89.74
2019-02-02T04:41:09.160Z,89.58
2019-02-02T04:43:36.586Z,90.07
2019-02-02T04:46:03.942Z,89.58
2019-02-02T04:48:32.581Z,89.30
2019-02-02T04:51:00.311Z,89.44
2019-02-02T04:53:28.039Z,89.89
2019-02-02T04:55:55.503Z,90.37
2019-02-02T04:58:22.886Z,90.22
2019-02-02T05:00:50.250Z,90.26
2019-02-02T05:03:17.628Z,90.27
2019-02-02T05:05:45.105Z,90.17
2019-02-02T05:08:12.793Z,90.16
2019-02-02T05:10:40.164Z,89.91
2019-02-02T05:13:07.564Z,89.85
2019-02-02T05:15:34.967Z,89.70
2019-02-02T05:18:02.394Z,89.63
2019-02-02T05:20:29.850Z,90.09
2019-02-02T05:22:57.254Z,90.41
2019-02-02T05:25:24.609Z,90.47
2019-02-02T05:27:51.986Z,90.50
2019-02-02T05:30:20.737Z,90.58
2019-02-02T05:32:48.107Z,90.59
2019-02-02T05:35:15.496Z,90.35
2019-02-02T05:37:42.872Z,90.12
2019-02-02T05:40:11.287Z,90.10
2019-02-02T05:42:38.659Z,90.39
2019-02-02T05:45:06.970Z,90.19
2019-02-02T05:47:34.346Z,90.13
2019-02-02T05:50:01.826Z,90.10
2019-02-02T05:52:29.290Z,90.08
2019-02-02T05:54:56.678Z,90.04
2019-02-02T05:57:24.148Z,89.99
2019-02-02T05:59:52.870Z,89.67
2019-02-02T06:02:20.638Z,89.63
2019-02-02T06:04:48.066Z,89.66
2019-02-02T06:07:15.435Z,89.71
2019-02-02T06:09:42.867Z,89.64
2019-02-02T06:12:10.333Z,89.47
2019-02-02T06:14:37.792Z,89.38
2019-02-02T06:17:05.171Z,89.35
2019-02-02T06:19:32.554Z,89.39
2019-02-02T06:21:59.960Z,89.41
2019-02-02T06:24:27.340Z,89.55
2019-02-02T06:26:54.832Z,89.74
2019-02-02T06:29:22.220Z,89.63
2019-02-02T06:31:49.615Z,89.77
2019-02-02T06:34:17.111Z,89.92
2019-02-02T06:36:44.575Z,89.94
2019-02-02T06:39:11.982Z,89.92
2019-02-02T06:41:39.346Z,89.82
2019-02-02T06:44:06.755Z,89.51
2019-02-02T06:46:43.369Z,89.38
2019-02-02T06:49:03.423Z,89.37
2019-02-02T06:51:30.822Z,89.41
2019-02-02T06:53:58.254Z,89.31
2019-02-02T06:56:25.754Z,89.32
2019-02-02T06:58:53.314Z,89.43
2019-02-02T07:01:20.752Z,89.46
2019-02-02T07:03:48.312Z,89.43
2019-02-02T07:06:15.734Z,89.69
2019-02-02T07:08:43.157Z,89.67
2019-02-02T07:11:10.662Z,89.71
2019-02-02T07:13:38.059Z,89.69
2019-02-02T07:16:05.429Z,89.83
2019-02-02T07:18:33.002Z,89.87
2019-02-02T07:21:00.439Z,89.94
2019-02-02T07:23:27.890Z,89.83
2019-02-02T07:25:55.333Z,89.75
2019-02-02T07:28:22.723Z,89.52
2019-02-02T07:30:50.111Z,89.57
2019-02-02T07:33:17.598Z,89.52
2019-02-02T07:35:44.990Z,89.31
2019-02-02T07:38:12.523Z,89.10
2019-02-02T07:40:39.877Z,88.86
2019-02-02T07:43:07.310Z,88.29
2019-02-02T07:45:34.703Z,88.05
2019-02-02T07:48:02.112Z,87.85
2019-02-02T07:50:29.620Z,87.85
2019-02-02T07:52:56.995Z,87.85
2019-02-02T07:55:25.084Z,88.40
2019-02-02T07:57:52.544Z,88.96
2019-02-02T08:00:27.064Z,89.29
2019-02-02T08:02:54.748Z,89.63
2019-02-02T08:05:22.319Z,89.72
2019-02-02T08:07:49.750Z,89.76
2019-02-02T08:10:17.239Z,89.84
2019-02-02T08:12:44.646Z,89.88
2019-02-02T08:15:13.678Z,89.63
2019-02-02T08:17:41.160Z,89.54
2019-02-02T08:20:09.102Z,89.44
2019-02-02T08:22:36.614Z,89.37
2019-02-02T08:25:04.390Z,89.18
2019-02-02T08:27:31.833Z,88.81
2019-02-02T08:29:59.416Z,88.65
2019-02-02T08:32:26.879Z,88.05
2019-02-02T08:34:54.273Z,87.62
2019-02-02T08:37:23.483Z,87.20
2019-02-02T08:39:50.973Z,87.14
2019-02-02T08:42:18.545Z,86.64
2019-02-02T08:44:46.018Z,85.54
2019-02-02T08:47:13.438Z,83.05
2019-02-02T08:49:40.918Z,80.45
2019-02-02T08:52:08.329Z,78.89
2019-02-02T08:54:35.808Z,78.01
2019-02-02T08:57:03.426Z,75.01
2019-02-02T08:59:30.910Z,71.96
2019-02-02T09:01:58.286Z,69.67
2019-02-02T09:04:25.726Z,64.24
2019-02-02T09:06:53.175Z,60.53
2019-02-02T09:09:20.629Z,60.65
2019-02-02T09:11:48.815Z,55.50
2019-02-02T09:14:16.842Z,55.23
2019-02-02T09:16:44.258Z,53.39
2019-02-02T09:19:11.666Z,52.49
2019-02-02T09:21:39.039Z,46.99
2019-02-02T09:24:06.607Z,43.31
2019-02-02T09:26:34.218Z,40.21
2019-02-02T09:29:01.841Z,39.22
2019-02-02T09:31:29.311Z,37.39
2019-02-02T09:33:56.727Z,28.60
2019-02-02T09:36:24.396Z,28.09
2019-02-02T09:38:51.871Z,27.91
2019-02-02T09:41:19.305Z,29.86
2019-02-02T09:43:46.835Z,26.02
2019-02-02T09:46:14.241Z,25.14
2019-02-02T09:48:41.635Z,26.89
2019-02-02T09:51:09.343Z,27.29
2019-02-02T09:53:36.791Z,27.27
2019-02-02T09:56:04.707Z,26.00
2019-02-02T09:58:32.191Z,28.49
2019-02-02T10:00:59.666Z,31.89
2019-02-02T10:03:27.139Z,27.61
2019-02-02T10:05:54.570Z,29.09
2019-02-02T10:08:22.046Z,27.91
2019-02-02T10:10:49.464Z,25.58
2019-02-02T10:13:16.991Z,24.64
2019-02-02T10:15:44.453Z,21.37
2019-02-02T10:18:11.879Z,21.03
2019-02-02T10:20:39.491Z,22.05
2019-02-02T10:23:06.936Z,22.30
2019-02-02T10:25:34.552Z,22.10
2019-02-02T10:28:02.053Z,21.97
2019-02-02T10:30:30.551Z,21.41
2019-02-02T10:32:57.997Z,22.12
2019-02-02T10:35:25.555Z,23.32
2019-02-02T10:37:53.053Z,23.31
2019-02-02T10:40:20.457Z,21.29
2019-02-02T10:42:47.928Z,21.69
2019-02-02T10:45:15.520Z,22.18
2019-02-02T10:47:43.150Z,23.06
2019-02-02T10:50:11.381Z,21.76
2019-02-02T10:52:38.904Z,22.31
2019-02-02T10:55:06.951Z,21.88
2019-02-02T10:57:34.459Z,21.91
2019-02-02T11:00:04.295Z,21.94
2019-02-02T11:02:31.790Z,21.98
2019-02-02T11:05:00.399Z,20.28
2019-02-02T11:07:27.896Z,19.49
2019-02-02T11:09:55.464Z,22.54
2019-02-02T11:12:23.209Z,21.50
2019-02-02T11:14:50.721Z,22.19
2019-02-02T11:17:18.213Z,21.97
2019-02-02T11:19:45.944Z,21.82
2019-02-02T11:22:13.442Z,21.18
2019-02-02T11:24:41.092Z,21.68
2019-02-02T11:27:08.673Z,21.83
2019-02-02T11:29:36.219Z,21.73
2019-02-02T11:32:03.850Z,20.58
2019-02-02T11:34:31.393Z,21.16
2019-02-02T11:37:01.414Z,21.17
2019-02-02T11:39:28.789Z,21.63
2019-02-02T11:41:56.224Z,22.31
2019-02-02T11:44:23.712Z,22.16
2019-02-02T11:46:51.129Z,22.31
2019-02-02T11:49:18.617Z,22.92
2019-02-02T11:51:46.037Z,25.64
2019-02-02T11:54:13.435Z,26.36
2019-02-02T11:56:40.860Z,28.04
2019-02-02T11:59:08.268Z,30.71
2019-02-02T12:01:35.674Z,33.22
2019-02-02T12:04:03.176Z,35.00
2019-02-02T12:06:30.691Z,36.52
2019-02-02T12:08:58.195Z,39.37
2019-02-02T12:11:25.706Z,41.07
2019-02-02T12:13:53.099Z,41.65
2019-02-02T12:16:20.576Z,42.10
2019-02-02T12:18:48.131Z,43.18
2019-02-02T12:21:15.643Z,44.35
2019-02-02T12:23:43.082Z,44.39
2019-02-02T12:26:10.478Z,44.98
2019-02-02T12:28:37.878Z,44.90
2019-02-02T12:31:05.334Z,46.63
2019-02-02T12:33:32.870Z,45.77
2019-02-02T12:36:00.409Z,46.03
2019-02-02T12:38:27.815Z,46.39
2019-02-02T12:40:55.204Z,46.36
2019-02-02T12:43:22.600Z,47.42
2019-02-02T12:45:51.129Z,47.00
2019-02-02T12:48:18.663Z,47.79
2019-02-02T12:50:46.073Z,49.07
2019-02-02T12:53:13.545Z,49.53
2019-02-02T12:55:41.095Z,49.45
2019-02-02T12:58:08.864Z,50.69
2019-02-02T13:00:36.408Z,50.97
2019-02-02T13:03:04.538Z,51.20
2019-02-02T13:05:32.002Z,52.19
2019-02-02T13:07:59.586Z,50.43
2019-02-02T13:10:27.289Z,50.70
2019-02-02T13:12:54.727Z,50.58
2019-02-02T13:15:22.159Z,51.52
2019-02-02T13:17:49.691Z,51.60
2019-02-02T13:20:17.198Z,52.34
2019-02-02T13:22:44.783Z,52.76
2019-02-02T13:25:13.147Z,53.43
2019-02-02T13:27:40.613Z,53.80
2019-02-02T13:30:09.635Z,52.63
2019-02-02T13:32:37.136Z,52.97
2019-02-02T13:35:05.734Z,53.85
2019-02-02T13:37:33.411Z,54.13
2019-02-02T13:40:03.600Z,54.41
2019-02-02T13:42:30.286Z,54.31
2019-02-02T13:44:57.744Z,55.19
2019-02-02T13:47:25.139Z,54.75
2019-02-02T13:49:52.643Z,55.41
2019-02-02T13:52:20.155Z,55.69
2019-02-02T13:54:47.666Z,55.55
2019-02-02T13:57:15.227Z,55.79
2019-02-02T13:59:44.697Z,56.07
2019-02-02T14:02:12.197Z,56.03
2019-02-02T14:04:39.697Z,55.23
2019-02-02T14:07:17.480Z,55.98
2019-02-02T14:09:36.464Z,54.17
2019-02-02T14:12:03.828Z,53.13
2019-02-02T14:14:31.225Z,53.90
2019-02-02T14:16:58.650Z,54.66
2019-02-02T14:19:26.056Z,54.72
2019-02-02T14:21:53.569Z,54.22
2019-02-02T14:24:21.056Z,57.34
2019-02-02T14:26:48.463Z,60.64
2019-02-02T14:29:15.910Z,62.01
2019-02-02T14:31:43.301Z,63.61
2019-02-02T14:34:11.175Z,65.02
2019-02-02T14:36:38.571Z,65.65
2019-02-02T14:39:07.295Z,66.11
2019-02-02T14:41:34.818Z,67.43
2019-02-02T14:44:02.237Z,67.50
2019-02-02T14:46:29.623Z,67.93
2019-02-02T14:48:57.075Z,67.99
2019-02-02T14:51:24.602Z,67.41
2019-02-02T14:53:51.968Z,68.40
2019-02-02T14:56:19.415Z,68.36
2019-02-02T14:58:46.844Z,69.63
2019-02-02T15:01:14.233Z,69.76
2019-02-02T15:03:41.778Z,70.39
2019-02-02T15:06:09.770Z,69.25
2019-02-02T15:08:37.364Z,69.46
2019-02-02T15:11:04.758Z,69.90
2019-02-02T15:13:32.431Z,69.91
2019-02-02T15:15:59.923Z,70.04
2019-02-02T15:18:27.358Z,70.41
2019-02-02T15:20:54.886Z,69.93
2019-02-02T15:23:22.359Z,69.93
2019-02-02T15:25:49.845Z,70.29
2019-02-02T15:28:17.338Z,69.62
2019-02-02T15:30:44.877Z,69.84
2019-02-02T15:33:12.381Z,70.23
2019-02-02T15:35:39.886Z,69.72
2019-02-02T15:38:07.299Z,69.23
2019-02-02T15:40:34.952Z,69.63
2019-02-02T15:43:02.547Z,69.80
2019-02-02T15:45:30.320Z,70.11
2019-02-02T15:47:57.743Z,70.06
2019-02-02T15:50:25.146Z,70.46
2019-02-02T15:52:52.643Z,70.26
2019-02-02T15:55:20.758Z,70.24
2019-02-02T15:57:48.287Z,70.83
2019-02-02T16:00:22.746Z,70.73
2019-02-02T16:02:50.241Z,70.85
2019-02-02T16:05:17.765Z,70.63
2019-02-02T16:07:45.278Z,70.99
2019-02-02T16:10:15.404Z,71.23
2019-02-02T16:12:43.021Z,70.92
2019-02-02T16:15:10.459Z,70.91
2019-02-02T16:17:37.845Z,70.76
2019-02-02T16:20:05.788Z,70.87
2019-02-02T16:22:33.226Z,70.64
2019-02-02T16:25:00.713Z,70.54
2019-02-02T16:27:28.284Z,71.36
2019-02-02T16:29:55.820Z,71.74
2019-02-02T16:32:23.355Z,71.45
2019-02-02T16:34:50.945Z,71.48
2019-02-02T16:37:18.387Z,71.57
2019-02-02T16:39:45.941Z,71.26
2019-02-02T16:42:13.450Z,71.37
2019-02-02T16:44:40.956Z,71.36
2019-02-02T16:47:08.506Z,72.06
2019-02-02T16:49:35.998Z,72.21
2019-02-02T16:52:03.999Z,72.63
2019-02-02T16:54:31.419Z,72.51
2019-02-02T16:56:58.886Z,72.67
2019-02-02T16:59:26.315Z,73.03
2019-02-02T17:01:53.716Z,73.55
2019-02-02T17:04:21.446Z,73.96
2019-02-02T17:06:48.964Z,73.42
2019-02-02T17:09:16.456Z,73.04
2019-02-02T17:11:43.932Z,73.54
2019-02-02T17:14:11.430Z,73.49
2019-02-02T17:16:39.025Z,73.90
2019-02-02T17:19:06.437Z,74.14
2019-02-02T17:21:33.825Z,74.54
2019-02-02T17:24:01.268Z,74.82
2019-02-02T17:26:28.746Z,74.46
2019-02-02T17:28:56.155Z,74.19
2019-02-02T17:31:23.691Z,73.72
2019-02-02T17:33:51.257Z,72.83
2019-02-02T17:36:18.715Z,73.14
2019-02-02T17:38:46.335Z,73.10
2019-02-02T17:41:13.859Z,73.34
2019-02-02T17:43:41.288Z,73.04
2019-02-02T17:46:09.051Z,73.23
2019-02-02T17:48:36.530Z,73.27
2019-02-02T17:51:03.967Z,73.07
2019-02-02T17:53:31.477Z,73.50
2019-02-02T17:55:58.879Z,73.71
2019-02-02T17:58:26.404Z,73.63
2019-02-02T18:00:58.043Z,73.80
2019-02-02T18:03:25.514Z,73.77
2019-02-02T18:05:52.952Z,74.32
2019-02-02T18:08:20.496Z,74.76
2019-02-02T18:10:47.932Z,74.84
2019-02-02T18:13:15.436Z,75.11
2019-02-02T18:15:43.066Z,75.39
2019-02-02T18:18:11.007Z,75.87
2019-02-02T18:20:38.574Z,75.82
2019-02-02T18:23:06.324Z,76.43
2019-02-02T18:25:33.734Z,77.13
2019-02-02T18:28:01.215Z,77.44
2019-02-02T18:30:28.643Z,77.98
2019-02-02T18:32:56.268Z,78.79
2019-02-02T18:35:23.752Z,79.48
2019-02-02T18:37:51.509Z,79.95
2019-02-02T18:40:19.084Z,80.39
2019-02-02T18:42:46.869Z,80.57
2019-02-02T18:45:15.715Z,80.77
2019-02-02T18:47:43.282Z,80.81
2019-02-02T18:50:11.684Z,80.76
2019-02-02T18:52:39.108Z,81.02
2019-02-02T18:55:07.778Z,81.13
2019-02-02T18:57:35.299Z,81.22
2019-02-02T19:00:06.144Z,81.15
2019-02-02T19:02:33.169Z,81.45
2019-02-02T19:05:04.005Z,81.57
2019-02-02T19:07:30.374Z,81.25
2019-02-02T19:09:57.823Z,81.10
2019-02-02T19:12:25.421Z,80.86
2019-02-02T19:14:52.966Z,81.32
2019-02-02T19:17:20.415Z,81.40
2019-02-02T19:19:47.899Z,81.00
2019-02-02T19:22:15.321Z,81.39
2019-02-02T19:24:42.708Z,81.55
2019-02-02T19:27:10.160Z,81.75
2019-02-02T19:29:37.710Z,81.67
2019-02-02T19:32:05.207Z,81.83
2019-02-02T19:34:32.760Z,82.03
2019-02-02T19:37:00.257Z,82.41
2019-02-02T19:39:27.738Z,82.17
2019-02-02T19:41:55.239Z,82.28
2019-02-02T19:44:22.908Z,82.18
2019-02-02T19:46:50.435Z,81.84
2019-02-02T19:49:17.863Z,82.52
2019-02-02T19:51:45.297Z,82.73
2019-02-02T19:54:12.757Z,82.48
2019-02-02T19:56:40.163Z,82.35
2019-02-02T19:59:07.598Z,82.40
2019-02-02T20:01:35.040Z,82.15
2019-02-02T20:04:02.922Z,82.15
2019-02-02T20:06:30.328Z,82.33
2019-02-02T20:08:57.741Z,82.73
2019-02-02T20:11:25.203Z,82.62
2019-02-02T20:13:52.611Z,82.37
2019-02-02T20:16:20.120Z,82.41
2019-02-02T20:18:47.506Z,82.50
2019-02-02T20:21:14.900Z,82.48
2019-02-02T20:23:42.306Z,82.54
2019-02-02T20:26:09.718Z,82.26
2019-02-02T20:28:37.318Z,82.39
2019-02-02T20:31:04.801Z,82.38
2019-02-02T20:33:32.317Z,82.20
2019-02-02T20:35:59.862Z,81.89
2019-02-02T20:38:27.291Z,82.29
2019-02-02T20:40:54.697Z,82.55
2019-02-02T20:43:22.177Z,82.70
2019-02-02T20:45:49.774Z,82.53
2019-02-02T20:48:17.264Z,83.11
2019-02-02T20:50:44.762Z,83.43
2019-02-02T20:53:12.299Z,83.25
2019-02-02T20:55:40.839Z,83.19
2019-02-02T20:58:08.323Z,83.21
2019-02-02T21:00:36.062Z,83.75
2019-02-02T21:03:03.718Z,83.42
2019-02-02T21:05:31.986Z,83.68
2019-02-02T21:07:59.650Z,83.78
2019-02-02T21:10:27.180Z,84.04
2019-02-02T21:12:54.850Z,84.28
2019-02-02T21:15:22.396Z,83.70
2019-02-02T21:17:50.034Z,83.64
2019-02-02T21:20:18.588Z,83.56
2019-02-02T21:22:46.102Z,83.23
2019-02-02T21:25:14.053Z,82.75
2019-02-02T21:27:42.282Z,82.53
2019-02-02T21:30:11.733Z,82.49
2019-02-02T21:32:39.328Z,82.54
2019-02-02T21:35:07.024Z,82.60
2019-02-02T21:37:34.942Z,82.60
2019-02-02T21:40:02.577Z,82.81
2019-02-02T21:42:30.205Z,83.01
2019-02-02T21:44:57.763Z,82.82
2019-02-02T21:47:25.275Z,82.76
2019-02-02T21:49:52.798Z,82.83
2019-02-02T21:52:20.308Z,82.92
2019-02-02T21:54:47.838Z,83.00
2019-02-02T21:57:15.354Z,83.28
2019-02-02T21:59:42.841Z,83.58
2019-02-02T22:02:10.377Z,83.73
2019-02-02T22:04:37.883Z,83.65
2019-02-02T22:07:05.408Z,83.65
2019-02-02T22:09:33.333Z,83.79
2019-02-02T22:12:00.861Z,84.12
2019-02-02T22:14:28.614Z,84.45
2019-02-02T22:16:56.105Z,84.63
2019-02-02T22:19:23.599Z,84.60
2019-02-02T22:21:51.029Z,84.45
2019-02-02T22:24:18.691Z,84.56
2019-02-02T22:26:46.117Z,84.70
2019-02-02T22:29:13.622Z,84.84
2019-02-02T22:31:41.153Z,84.56
2019-02-02T22:34:08.647Z,84.52
2019-02-02T22:36:36.076Z,84.38
2019-02-02T22:39:06.110Z,84.45
2019-02-02T22:41:33.632Z,84.46
2019-02-02T22:44:01.340Z,84.79
2019-02-02T22:46:28.922Z,84.84
2019-02-02T22:48:56.355Z,84.56
2019-02-02T22:51:23.850Z,84.60
2019-02-02T22:53:51.751Z,84.54
2019-02-02T22:56:19.266Z,84.60
2019-02-02T22:58:46.853Z,84.66
2019-02-02T23:01:21.424Z,84.64
2019-02-02T23:03:50.987Z,84.63
2019-02-02T23:06:39.509Z,84.69
2019-02-02T23:09:26.566Z,84.59
2019-02-02T23:12:13.709Z,84.62
2019-02-02T23:15:00.718Z,84.48
2019-02-02T23:17:28.125Z,84.61
2019-02-02T23:19:55.588Z,84.73
2019-02-02T23:22:23.090Z,84.62
2019-02-02T23:24:50.566Z,84.56
2019-02-02T23:27:18.086Z,84.58
2019-02-02T23:29:45.882Z,84.67
2019-02-02T23:32:13.333Z,84.91
2019-02-02T23:34:40.853Z,85.22
2019-02-02T23:37:08.358Z,85.07
2019-02-02T23:39:35.989Z,85.26
2019-02-02T23:42:03.507Z,85.49
2019-02-02T23:44:31.002Z,85.67
2019-02-02T23:46:58.641Z,85.95
2019-02-02T23:49:26.174Z,86.17
2019-02-02T23:51:54.105Z,86.25
2019-02-02T23:54:21.594Z,86.52
2019-02-02T23:56:49.037Z,86.74
2019-02-02T23:59:16.483Z,86.66
